Time;durP1;ratioP1;P1;durP2;ratioP2;P2;SDS_P1;SDS_P2;PMS_P1;PMS_P2;Temp;Humidity;BMP_temperature;BMP_pressure;BME280_temperature;BME280_humidity;BME280_pressure;Samples;Min_cycle;Max_cycle;Signal;HPM_P1;HPM_P2
2022/12/23 00:00:44;;;;;;;0.70;0.70;;;6.80;99.90;;;;;;4404712;32;21239;-78
2022/12/23 00:03:10;;;;;;;3.50;1.17;;;6.80;99.90;;;;;;4403192;32;20086;-78
2022/12/23 00:05:37;;;;;;;0.68;0.68;;;6.80;99.90;;;;;;4404724;32;20070;-77
2022/12/23 00:08:02;;;;;;;0.62;0.62;;;6.70;99.90;;;;;;4406032;32;20597;-78
2022/12/23 00:10:28;;;;;;;1.27;0.82;;;6.70;99.90;;;;;;4401802;32;20069;-78
2022/12/23 00:15:09;;;;;;;0.73;0.73;;;6.80;99.90;;;;;;4391860;32;20593;-78
2022/12/23 00:15:40;;;;;;;0.98;0.77;;;6.80;99.90;;;;;;4387766;32;20074;-78
2022/12/23 00:18:05;;;;;;;1.23;0.50;;;6.80;99.90;;;;;;4405064;32;20089;-78
2022/12/23 00:20:33;;;;;;;1.75;0.70;;;6.80;99.90;;;;;;4405511;32;20144;-78
2022/12/23 00:23:05;;;;;;;0.57;0.57;;;6.80;99.90;;;;;;4403523;32;20117;-78
2022/12/23 00:25:39;;;;;;;0.70;0.70;;;6.70;99.90;;;;;;4404522;32;20530;-78
2022/12/23 00:28:22;;;;;;;0.40;0.40;;;6.70;99.90;;;;;;4404458;32;20110;-78
2022/12/23 00:30:54;;;;;;;0.60;0.60;;;6.60;99.90;;;;;;4388720;32;20114;-78
2022/12/23 00:33:22;;;;;;;0.90;0.75;;;6.60;99.90;;;;;;4403561;32;20094;-78
2022/12/23 00:35:49;;;;;;;0.60;0.60;;;6.60;99.90;;;;;;4403238;32;20094;-77
2022/12/23 00:38:15;;;;;;;10.07;1.27;;;6.50;99.90;;;;;;4402335;32;20077;-78
2022/12/23 00:42:58;;;;;;;1.37;0.85;;;6.50;99.90;;;;;;4399049;32;20091;-78
2022/12/23 00:43:27;;;;;;;3.40;1.12;;;6.50;99.90;;;;;;4376853;32;20089;-78
2022/12/23 00:45:53;;;;;;;0.60;0.40;;;6.50;99.90;;;;;;4402636;32;20070;-78
2022/12/23 00:49:50;;;;;;;0.40;0.40;;;6.60;99.90;;;;;;4403448;32;20073;-78
2022/12/23 00:51:04;;;;;;;2.75;1.37;;;6.50;99.90;;;;;;4392912;32;20102;-78
2022/12/23 00:53:29;;;;;;;0.37;0.37;;;6.60;99.90;;;;;;4408228;32;20077;-78
2022/12/23 00:55:55;;;;;;;1.37;1.12;;;6.50;99.90;;;;;;4405092;32;20091;-78
2022/12/23 00:58:20;;;;;;;0.57;0.57;;;6.60;99.90;;;;;;4406007;32;20147;-78
2022/12/23 01:05:35;;;;;;;1.62;0.62;;;6.60;99.90;;;;;;4392112;32;20097;-78
2022/12/23 01:06:18;;;;;;;0.40;0.40;;;6.60;99.90;;;;;;4394668;32;20069;-78
2022/12/23 01:08:43;;;;;;;0.90;0.70;;;6.50;99.90;;;;;;4404406;32;20098;-78
2022/12/23 01:11:10;;;;;;;0.70;0.70;;;6.50;99.90;;;;;;4397268;32;20512;-78
2022/12/23 01:13:36;;;;;;;1.17;0.93;;;6.50;99.90;;;;;;4390134;32;20089;-78
2022/12/23 01:16:06;;;;;;;0.60;0.60;;;6.50;99.90;;;;;;4400952;32;20140;-78
2022/12/23 01:18:33;;;;;;;1.50;1.40;;;6.50;99.90;;;;;;4400945;32;20122;-78
2022/12/23 01:21:04;;;;;;;1.27;0.80;;;6.50;99.90;;;;;;4403138;32;20171;-78
2022/12/23 01:23:30;;;;;;;;;;;6.50;99.90;;;;;;4404133;32;20097;-78
2022/12/23 01:25:57;;;;;;;0.50;0.50;;;6.60;99.90;;;;;;4405207;32;20033;-78
2022/12/23 01:28:23;;;;;;;1.70;1.02;;;6.50;99.90;;;;;;4403892;32;20074;-78
2022/12/23 01:30:48;;;;;;;0.73;0.73;;;6.50;99.90;;;;;;4403844;32;20443;-78
2022/12/23 01:33:14;;;;;;;4.07;1.60;;;6.50;99.90;;;;;;4404958;32;20312;-78
2022/12/23 01:35:39;;;;;;;2.45;1.58;;;6.50;99.90;;;;;;4403998;32;20127;-78
2022/12/23 01:38:05;;;;;;;2.30;0.88;;;6.50;99.90;;;;;;4405849;32;20098;-78
2022/12/23 01:40:35;;;;;;;1.12;1.02;;;6.50;99.90;;;;;;4397345;32;20081;-78
2022/12/23 01:43:00;;;;;;;2.77;1.27;;;6.40;99.90;;;;;;4392508;32;20537;-78
2022/12/23 01:45:29;;;;;;;0.95;0.88;;;6.40;99.90;;;;;;4398177;32;20074;-78
2022/12/23 01:47:59;;;;;;;4.30;1.67;;;6.40;99.90;;;;;;4404391;32;20062;-78
2022/12/23 01:50:41;;;;;;;2.92;1.98;;;6.40;99.90;;;;;;4403230;32;20585;-78
2022/12/23 01:53:15;;;;;;;2.12;1.40;;;6.40;99.90;;;;;;4404572;32;20084;-78
2022/12/23 01:55:48;;;;;;;2.22;1.10;;;6.40;99.90;;;;;;4402635;32;20102;-78
2022/12/23 01:58:21;;;;;;;0.75;0.75;;;6.50;99.90;;;;;;4403175;32;20747;-78
2022/12/23 02:03:48;;;;;;;2.05;0.82;;;6.50;99.90;;;;;;4392007;32;20085;-77
2022/12/23 02:09:17;;;;;;;0.70;0.70;;;6.50;99.90;;;;;;4389406;32;20178;-78
2022/12/23 02:12:23;;;;;;;1.00;0.95;;;6.40;99.90;;;;;;4387869;32;20082;-78
2022/12/23 02:16:16;;;;;;;14.90;1.87;;;6.40;99.90;;;;;;4369610;32;20826;-78
2022/12/23 02:18:27;;;;;;;1.27;0.85;;;6.30;99.90;;;;;;4383404;32;20538;-78
2022/12/23 02:21:02;;;;;;;0.50;0.50;;;6.40;99.90;;;;;;4390955;32;20070;-77
2022/12/23 02:24:10;;;;;;;1.10;0.80;;;6.40;99.90;;;;;;4405323;32;20122;-77
2022/12/23 02:27:05;;;;;;;0.62;0.60;;;6.40;99.90;;;;;;4389948;32;20117;-77
2022/12/23 02:30:04;;;;;;;0.95;0.73;;;6.40;99.90;;;;;;4390123;32;20090;-78
2022/12/23 02:32:58;;;;;;;1.92;1.20;;;6.50;99.90;;;;;;4391225;32;20119;-78
2022/12/23 02:35:36;;;;;;;0.95;0.95;;;6.50;99.90;;;;;;4390924;32;20106;-78
2022/12/23 02:38:26;;;;;;;1.67;1.35;;;6.50;99.90;;;;;;4401509;32;20093;-78
2022/12/23 02:41:05;;;;;;;0.73;0.73;;;6.50;99.90;;;;;;4384666;32;20145;-78
2022/12/23 02:43:45;;;;;;;3.60;1.48;;;6.50;99.90;;;;;;4393247;32;20070;-78
2022/12/23 02:46:29;;;;;;;1.08;0.98;;;6.50;99.90;;;;;;4400187;32;20145;-78
2022/12/23 02:49:15;;;;;;;0.88;0.88;;;6.50;99.90;;;;;;4404871;32;20094;-78
2022/12/23 02:51:45;;;;;;;0.50;0.50;;;6.60;99.90;;;;;;4403981;32;20081;-78
2022/12/23 02:54:16;;;;;;;1.10;0.47;;;6.70;99.90;;;;;;4402165;32;20066;-78
2022/12/23 02:56:45;;;;;;;1.25;1.17;;;6.70;99.90;;;;;;4401271;32;20074;-77
2022/12/23 02:59:16;;;;;;;3.62;0.80;;;6.70;99.90;;;;;;4403248;32;20094;-78
2022/12/23 03:01:43;;;;;;;1.85;0.80;;;6.60;99.90;;;;;;4401153;32;20062;-78
2022/12/23 03:04:09;;;;;;;0.70;0.70;;;6.60;99.90;;;;;;4403663;32;20652;-78
2022/12/23 03:06:41;;;;;;;1.55;1.00;;;6.60;99.90;;;;;;4405335;32;20090;-78
2022/12/23 03:09:07;;;;;;;2.28;0.65;;;6.50;99.90;;;;;;4402613;32;20127;-78
2022/12/23 03:12:04;;;;;;;0.55;0.55;;;6.50;99.90;;;;;;4391449;32;20094;-79
2022/12/23 03:14:55;;;;;;;0.65;0.65;;;6.60;99.90;;;;;;4380020;32;20514;-78
2022/12/23 03:17:38;;;;;;;1.85;0.90;;;6.60;99.90;;;;;;4390816;32;20070;-78
2022/12/23 03:20:23;;;;;;;1.17;1.05;;;6.60;99.90;;;;;;4402920;32;20058;-78
2022/12/23 03:23:02;;;;;;;1.27;1.05;;;6.60;99.90;;;;;;4404013;32;20094;-78
2022/12/23 03:25:37;;;;;;;0.40;0.40;;;6.70;99.90;;;;;;4405049;32;20062;-79
2022/12/23 03:28:12;;;;;;;1.55;0.95;;;6.70;99.90;;;;;;4401858;32;20534;-78
2022/12/23 03:30:41;;;;;;;2.58;1.08;;;6.70;99.90;;;;;;4400960;32;20089;-78
2022/12/23 03:33:14;;;;;;;6.12;0.90;;;6.70;99.90;;;;;;4404448;32;20461;-78
2022/12/23 03:35:48;;;;;;;0.50;0.50;;;6.70;99.90;;;;;;4406150;32;20138;-78
2022/12/23 03:38:17;;;;;;;5.57;1.62;;;6.70;99.90;;;;;;4403221;32;20126;-79
2022/12/23 03:40:50;;;;;;;1.58;0.82;;;6.70;99.90;;;;;;4396289;32;20101;-79
2022/12/23 03:43:24;;;;;;;1.15;0.88;;;6.80;99.90;;;;;;4391100;32;20376;-78
2022/12/23 03:45:56;;;;;;;2.35;1.27;;;6.80;99.90;;;;;;4397413;32;20077;-79
2022/12/23 03:48:28;;;;;;;1.05;0.77;;;6.80;99.90;;;;;;4402482;32;20089;-79
2022/12/23 03:50:58;;;;;;;7.07;1.40;;;6.80;99.90;;;;;;4405181;32;20489;-78
2022/12/23 03:53:29;;;;;;;3.05;2.00;;;6.90;99.90;;;;;;4408165;32;20467;-79
2022/12/23 03:56:00;;;;;;;1.17;1.12;;;6.80;99.90;;;;;;4404959;32;20137;-78
2022/12/23 03:58:33;;;;;;;;;;;6.80;99.90;;;;;;4406853;32;20066;-78
2022/12/23 04:01:16;;;;;;;0.88;0.82;;;6.70;99.90;;;;;;4406566;32;20424;-79
2022/12/23 04:03:48;;;;;;;1.37;1.00;;;6.70;99.90;;;;;;4403299;32;20176;-79
2022/12/23 04:06:18;;;;;;;0.82;0.82;;;6.80;99.90;;;;;;4404385;32;20448;-78
2022/12/23 04:08:46;;;;;;;1.05;0.70;;;6.80;99.90;;;;;;4405469;32;20102;-78
2022/12/23 04:11:12;;;;;;;1.17;0.93;;;6.70;99.90;;;;;;4382486;32;20094;-78
2022/12/23 04:13:38;;;;;;;1.35;0.90;;;6.80;99.90;;;;;;4395111;32;20121;-79
2022/12/23 04:16:04;;;;;;;2.50;1.17;;;6.70;99.90;;;;;;4401363;32;20137;-79
2022/12/23 04:18:29;;;;;;;0.60;0.60;;;6.70;99.90;;;;;;4404057;32;20113;-78
2022/12/23 04:20:55;;;;;;;4.57;0.93;;;6.70;99.90;;;;;;4404851;32;20061;-79
2022/12/23 04:23:20;;;;;;;1.67;1.00;;;6.70;99.90;;;;;;4409670;32;20580;-78
2022/12/23 04:25:46;;;;;;;2.12;0.82;;;6.70;99.90;;;;;;4402661;32;20530;-78
2022/12/23 04:28:11;;;;;;;1.23;1.12;;;6.70;99.90;;;;;;4407842;32;20078;-78
2022/12/23 04:30:37;;;;;;;1.00;0.80;;;6.70;99.90;;;;;;4406713;32;20109;-78
2022/12/23 04:33:02;;;;;;;3.42;0.95;;;6.70;99.90;;;;;;4409111;32;20070;-78
2022/12/23 04:35:29;;;;;;;1.10;0.85;;;6.70;99.90;;;;;;4404073;32;20085;-78
2022/12/23 04:37:54;;;;;;;0.98;0.82;;;6.70;99.90;;;;;;4403104;32;20111;-78
2022/12/23 04:40:21;;;;;;;3.50;0.80;;;6.70;99.90;;;;;;4400357;32;20491;-78
2022/12/23 04:42:46;;;;;;;1.17;1.15;;;6.70;99.90;;;;;;4391734;32;20333;-78
2022/12/23 04:45:13;;;;;;;0.32;0.32;;;6.70;99.90;;;;;;4413120;32;20118;-78
2022/12/23 04:47:39;;;;;;;3.62;0.88;;;6.70;99.90;;;;;;4403631;32;20098;-78
2022/12/23 04:50:05;;;;;;;0.77;0.77;;;6.70;99.90;;;;;;4406097;32;20128;-78
2022/12/23 04:52:31;;;;;;;0.70;0.70;;;6.70;99.90;;;;;;4403946;32;20094;-78
2022/12/23 04:54:56;;;;;;;0.70;0.70;;;6.70;99.90;;;;;;4402946;32;20066;-78
2022/12/23 04:57:24;;;;;;;0.60;0.60;;;6.70;99.90;;;;;;4403372;32;20718;-78
2022/12/23 04:59:49;;;;;;;0.50;0.50;;;6.60;99.90;;;;;;4401453;32;20979;-77
2022/12/23 05:02:15;;;;;;;2.25;0.93;;;6.70;99.90;;;;;;4400932;32;20090;-77
2022/12/23 05:04:40;;;;;;;1.62;1.12;;;6.70;99.90;;;;;;4402874;32;20599;-77
2022/12/23 05:07:06;;;;;;;0.80;0.80;;;6.70;99.90;;;;;;4400796;32;20085;-77
2022/12/23 05:09:31;;;;;;;0.62;0.62;;;6.70;99.90;;;;;;4402106;32;20069;-78
2022/12/23 05:11:57;;;;;;;3.80;0.93;;;6.70;99.90;;;;;;4390445;32;20077;-77
2022/12/23 05:14:22;;;;;;;0.82;0.80;;;6.70;99.90;;;;;;4390622;32;20288;-78
2022/12/23 05:16:48;;;;;;;1.00;1.00;;;6.80;99.90;;;;;;4402019;32;20077;-77
2022/12/23 05:19:13;;;;;;;0.77;0.77;;;6.80;99.90;;;;;;4403884;32;20120;-77
2022/12/23 05:21:39;;;;;;;0.80;0.75;;;6.80;99.90;;;;;;4400293;32;20422;-77
2022/12/23 05:24:04;;;;;;;2.28;1.23;;;6.80;99.90;;;;;;4402065;32;21376;-77
2022/12/23 05:26:30;;;;;;;2.00;0.95;;;6.90;99.90;;;;;;4401427;32;20073;-78
2022/12/23 05:28:56;;;;;;;1.35;0.82;;;6.90;99.90;;;;;;4402697;32;20089;-77
2022/12/23 05:31:22;;;;;;;3.25;2.20;;;7.00;99.90;;;;;;4401350;32;20116;-78
2022/12/23 05:33:50;;;;;;;0.52;0.52;;;7.00;99.90;;;;;;4402442;32;20145;-78
2022/12/23 05:36:15;;;;;;;0.98;0.80;;;7.00;99.90;;;;;;4403227;32;20102;-78
2022/12/23 05:38:40;;;;;;;1.55;1.15;;;7.00;99.90;;;;;;4404778;32;20520;-78
2022/12/23 05:41:06;;;;;;;10.60;3.03;;;7.00;99.90;;;;;;4395944;32;20070;-78
2022/12/23 05:43:32;;;;;;;0.62;0.62;;;7.00;99.90;;;;;;4388839;32;20102;-78
2022/12/23 05:45:59;;;;;;;1.42;0.88;;;7.00;99.90;;;;;;4399886;32;20075;-78
2022/12/23 05:48:24;;;;;;;1.02;0.70;;;7.00;99.90;;;;;;4403391;32;20526;-78
2022/12/23 05:50:51;;;;;;;1.90;1.05;;;7.00;99.90;;;;;;4400687;32;20086;-78
2022/12/23 05:53:18;;;;;;;0.88;0.88;;;7.00;99.90;;;;;;4403280;32;20113;-78
2022/12/23 05:55:44;;;;;;;1.90;1.58;;;7.00;99.90;;;;;;4403199;32;20177;-78
2022/12/23 05:58:09;;;;;;;3.20;1.23;;;7.00;99.90;;;;;;4405273;32;20089;-77
2022/12/23 06:00:35;;;;;;;7.70;1.30;;;7.10;99.90;;;;;;4400243;32;20098;-77
2022/12/23 06:03:00;;;;;;;0.75;0.75;;;7.20;99.90;;;;;;4402439;32;20085;-77
2022/12/23 06:05:26;;;;;;;0.45;0.45;;;7.20;99.90;;;;;;4396452;32;20089;-78
2022/12/23 06:07:51;;;;;;;4.43;1.23;;;7.20;99.90;;;;;;4396611;32;20239;-77
2022/12/23 06:10:17;;;;;;;1.37;0.77;;;7.20;99.90;;;;;;4393378;32;20102;-78
2022/12/23 06:12:42;;;;;;;0.70;0.70;;;7.20;99.90;;;;;;4378343;32;20574;-78
2022/12/23 06:15:08;;;;;;;2.80;0.98;;;7.20;99.90;;;;;;4383923;32;20670;-79
2022/12/23 06:17:34;;;;;;;0.50;0.50;;;7.20;99.90;;;;;;4394432;32;20093;-77
2022/12/23 06:19:59;;;;;;;1.70;0.93;;;7.20;99.90;;;;;;4397187;32;20180;-78
2022/12/23 06:22:25;;;;;;;1.45;1.08;;;7.20;99.90;;;;;;4396111;32;20098;-78
2022/12/23 06:24:50;;;;;;;0.50;0.50;;;7.20;99.90;;;;;;4395284;32;20079;-77
2022/12/23 06:27:17;;;;;;;0.85;0.85;;;7.20;99.90;;;;;;4400238;32;20454;-78
2022/12/23 06:29:42;;;;;;;1.70;1.50;;;7.20;99.90;;;;;;4404546;32;20075;-77
2022/12/23 06:32:07;;;;;;;3.53;0.77;;;7.30;99.90;;;;;;4400681;32;20354;-78
2022/12/23 06:34:33;;;;;;;1.55;1.02;;;7.30;99.90;;;;;;4397056;32;20119;-78
2022/12/23 06:36:58;;;;;;;0.70;0.70;;;7.30;99.90;;;;;;4402883;32;20083;-77
2022/12/23 06:39:24;;;;;;;0.40;0.40;;;7.30;99.90;;;;;;4405883;32;20105;-78
2022/12/23 06:41:50;;;;;;;3.83;0.98;;;7.40;99.90;;;;;;4391709;32;20194;-78
2022/12/23 06:44:15;;;;;;;0.75;0.70;;;7.40;99.90;;;;;;4385716;32;20086;-78
2022/12/23 06:46:41;;;;;;;1.37;0.80;;;7.40;99.90;;;;;;4397099;32;20089;-78
2022/12/23 06:49:06;;;;;;;0.50;0.50;;;7.40;99.90;;;;;;4402395;32;20097;-78
2022/12/23 06:51:32;;;;;;;0.75;0.75;;;7.40;99.90;;;;;;4403881;32;20086;-77
2022/12/23 06:53:58;;;;;;;0.60;0.60;;;7.40;99.90;;;;;;4404243;32;20110;-77
2022/12/23 06:56:25;;;;;;;1.17;1.08;;;7.50;99.90;;;;;;4403216;32;20148;-78
2022/12/23 06:58:52;;;;;;;0.75;0.57;;;7.50;99.90;;;;;;4404639;32;20132;-77
2022/12/23 07:01:23;;;;;;;1.10;0.80;;;7.50;99.90;;;;;;4405099;32;20066;-78
2022/12/23 07:03:49;;;;;;;1.15;1.05;;;7.50;99.90;;;;;;4396394;32;20126;-78
2022/12/23 07:06:15;;;;;;;1.42;1.08;;;7.50;99.90;;;;;;4398516;32;20081;-78
2022/12/23 07:08:41;;;;;;;0.68;0.68;;;7.60;99.90;;;;;;4404124;32;20066;-78
2022/12/23 07:11:07;;;;;;;5.55;1.25;;;7.60;99.90;;;;;;4395416;32;20128;-78
2022/12/23 07:13:33;;;;;;;17.65;2.00;;;7.50;99.90;;;;;;4386563;32;20095;-78
2022/12/23 07:16:04;;;;;;;0.45;0.45;;;7.60;99.90;;;;;;4394118;32;20103;-78
2022/12/23 07:18:29;;;;;;;3.50;1.55;;;7.60;99.90;;;;;;4400401;32;20836;-78
2022/12/23 07:20:59;;;;;;;0.93;0.85;;;7.60;99.90;;;;;;4404158;32;20124;-78
2022/12/23 07:23:24;;;;;;;0.90;0.65;;;7.60;99.90;;;;;;4405705;32;20073;-78
2022/12/23 07:25:49;;;;;;;1.27;1.17;;;7.60;99.90;;;;;;4405578;32;20129;-78
2022/12/23 07:28:15;;;;;;;0.75;0.75;;;7.60;99.90;;;;;;4409523;32;20900;-78
2022/12/23 07:30:40;;;;;;;0.98;0.95;;;7.50;99.90;;;;;;4407572;32;20070;-78
2022/12/23 07:33:06;;;;;;;3.95;1.77;;;7.50;99.90;;;;;;4399429;32;113018;-78
2022/12/23 07:35:32;;;;;;;0.55;0.55;;;7.50;99.90;;;;;;4397682;32;20114;-78
2022/12/23 07:37:58;;;;;;;0.80;0.80;;;7.50;99.90;;;;;;4405120;32;20078;-78
2022/12/23 07:40:24;;;;;;;0.77;0.77;;;7.50;99.90;;;;;;4400331;32;20098;-78
2022/12/23 07:42:54;;;;;;;0.65;0.65;;;7.40;99.90;;;;;;4391230;32;20125;-78
2022/12/23 07:45:19;;;;;;;1.27;1.17;;;7.40;99.90;;;;;;4391650;32;20089;-78
2022/12/23 07:47:45;;;;;;;14.70;1.23;;;7.40;99.90;;;;;;4401702;32;20079;-78
2022/12/23 07:50:17;;;;;;;0.82;0.73;;;7.40;99.90;;;;;;4404549;32;20094;-78
2022/12/23 07:52:42;;;;;;;0.93;0.80;;;7.40;99.90;;;;;;4408132;32;20054;-78
2022/12/23 07:55:08;;;;;;;0.77;0.77;;;7.40;99.90;;;;;;4405168;32;20118;-78
2022/12/23 07:57:37;;;;;;;2.65;1.35;;;7.40;99.90;;;;;;4405937;32;20058;-78
2022/12/23 08:00:06;;;;;;;1.48;0.95;;;7.40;99.90;;;;;;4402757;32;20144;-78
2022/12/23 08:02:31;;;;;;;1.40;1.02;;;7.40;99.90;;;;;;4401063;32;20058;-78
2022/12/23 08:04:57;;;;;;;0.75;0.70;;;7.40;99.90;;;;;;4397834;32;20414;-78
2022/12/23 08:07:22;;;;;;;1.80;0.62;;;7.30;99.90;;;;;;4401714;32;20058;-78
2022/12/23 08:09:48;;;;;;;5.87;0.98;;;7.30;99.90;;;;;;4406159;32;20085;-79
2022/12/23 08:12:13;;;;;;;0.77;0.77;;;7.30;99.90;;;;;;4390569;32;20401;-78
2022/12/23 08:14:38;;;;;;;4.00;1.05;;;7.30;99.90;;;;;;4388794;32;20114;-79
2022/12/23 08:17:04;;;;;;;1.05;0.65;;;7.30;99.90;;;;;;4399995;32;20074;-79
2022/12/23 08:19:29;;;;;;;0.85;0.85;;;7.30;99.90;;;;;;4406128;32;20077;-78
2022/12/23 08:21:56;;;;;;;0.98;0.82;;;7.30;99.90;;;;;;4406189;32;20074;-78
2022/12/23 08:24:21;;;;;;;1.45;1.15;;;7.30;99.90;;;;;;4403679;32;20074;-78
2022/12/23 08:26:47;;;;;;;2.60;1.80;;;7.40;99.90;;;;;;4403620;32;20461;-79
2022/12/23 08:29:12;;;;;;;0.77;0.77;;;7.40;99.90;;;;;;4403523;32;20142;-78
2022/12/23 08:31:38;;;;;;;0.47;0.47;;;7.50;99.90;;;;;;4402596;32;20666;-79
2022/12/23 08:34:03;;;;;;;1.67;1.15;;;7.50;99.90;;;;;;4393070;32;20509;-78
2022/12/23 08:36:31;;;;;;;2.30;0.73;;;7.40;99.90;;;;;;4397650;32;20086;-79
2022/12/23 08:38:59;;;;;;;3.00;0.68;;;7.50;99.90;;;;;;4402603;32;20073;-78
2022/12/23 08:41:28;;;;;;;1.80;0.75;;;7.50;99.90;;;;;;4393590;32;20077;-79
2022/12/23 08:43:54;;;;;;;2.58;1.48;;;7.40;99.90;;;;;;4386204;32;20170;-79
2022/12/23 08:46:20;;;;;;;4.78;0.70;;;7.40;99.90;;;;;;4395416;32;20090;-79
2022/12/23 08:48:45;;;;;;;1.83;1.08;;;7.40;99.90;;;;;;4408168;32;20530;-78
2022/12/23 08:51:13;;;;;;;4.50;0.70;;;7.40;99.90;;;;;;4407446;32;20071;-78
2022/12/23 08:53:39;;;;;;;1.10;0.82;;;7.50;99.90;;;;;;4407116;32;20094;-79
2022/12/23 08:56:08;;;;;;;0.47;0.47;;;7.40;99.90;;;;;;4403839;32;20121;-78
2022/12/23 08:58:38;;;;;;;0.65;0.62;;;7.40;99.90;;;;;;4404507;32;20573;-79
2022/12/23 09:01:05;;;;;;;0.70;0.70;;;7.40;99.90;;;;;;4403924;32;20082;-79
2022/12/23 09:03:32;;;;;;;3.55;1.45;;;7.40;99.90;;;;;;4399459;32;20577;-79
2022/12/23 09:05:57;;;;;;;2.67;1.50;;;7.40;99.90;;;;;;4399723;32;20058;-78
2022/12/23 09:08:23;;;;;;;1.40;1.17;;;7.40;99.90;;;;;;4403037;32;20097;-78
2022/12/23 09:10:48;;;;;;;0.60;0.60;;;7.40;99.90;;;;;;4398361;32;20086;-79
2022/12/23 09:13:15;;;;;;;1.27;1.02;;;7.40;99.90;;;;;;4390499;32;20246;-78
2022/12/23 09:15:43;;;;;;;0.55;0.55;;;7.50;99.90;;;;;;4395521;32;20078;-79
2022/12/23 09:18:10;;;;;;;3.22;0.82;;;7.50;99.90;;;;;;4401321;32;20073;-78
2022/12/23 09:20:37;;;;;;;1.25;1.15;;;7.40;99.90;;;;;;4405567;32;20700;-79
2022/12/23 09:23:03;;;;;;;7.90;1.52;;;7.50;99.90;;;;;;4403664;32;20098;-78
2022/12/23 09:25:29;;;;;;;2.20;1.08;;;7.50;99.90;;;;;;4404791;32;20525;-79
2022/12/23 09:27:54;;;;;;;0.50;0.50;;;7.50;99.90;;;;;;4405109;32;20077;-78
2022/12/23 09:30:20;;;;;;;0.70;0.65;;;7.60;99.90;;;;;;4400956;32;20157;-79
2022/12/23 09:32:45;;;;;;;0.50;0.50;;;7.50;99.90;;;;;;4399381;32;20946;-79
2022/12/23 09:35:11;;;;;;;1.15;0.98;;;7.50;99.90;;;;;;4392945;32;20090;-79
2022/12/23 09:37:38;;;;;;;0.57;0.57;;;7.50;99.90;;;;;;4401795;32;20066;-79
2022/12/23 09:40:05;;;;;;;1.62;1.45;;;7.50;99.90;;;;;;4403009;32;20537;-79
2022/12/23 09:43:07;;;;;;;1.12;0.95;;;7.50;99.90;;;;;;4390543;32;20099;-78
2022/12/23 09:45:57;;;;;;;5.78;1.10;;;7.60;99.90;;;;;;4379357;32;20074;-79
2022/12/23 09:48:27;;;;;;;0.43;0.43;;;7.60;99.90;;;;;;4390556;32;20153;-79
2022/12/23 09:50:54;;;;;;;6.75;1.00;;;7.60;99.90;;;;;;4403116;32;20144;-79
2022/12/23 09:53:23;;;;;;;0.65;0.65;;;7.60;99.90;;;;;;4404113;32;20208;-79
2022/12/23 09:55:56;;;;;;;5.25;1.33;;;7.60;99.90;;;;;;4402100;32;20517;-79
2022/12/23 09:58:34;;;;;;;2.95;0.98;;;7.60;99.90;;;;;;4401183;32;20245;-79
2022/12/23 10:01:11;;;;;;;1.75;1.15;;;7.60;99.90;;;;;;4401376;32;20145;-79
2022/12/23 10:03:57;;;;;;;1.00;0.88;;;7.50;99.90;;;;;;4393991;32;20086;-78
2022/12/23 10:06:27;;;;;;;3.62;1.85;;;7.60;99.90;;;;;;4396515;32;20124;-79
2022/12/23 10:08:58;;;;;;;1.50;1.05;;;7.60;99.90;;;;;;4405958;32;20135;-79
2022/12/23 10:11:28;;;;;;;0.77;0.77;;;7.50;99.90;;;;;;4395714;32;20085;-82
2022/12/23 10:13:59;;;;;;;0.95;0.93;;;7.50;99.90;;;;;;4364661;32;20118;-78
2022/12/23 10:16:33;;;;;;;0.75;0.75;;;7.50;99.90;;;;;;4391604;32;20081;-78
2022/12/23 10:19:05;;;;;;;3.20;0.93;;;7.60;99.90;;;;;;4402024;32;21042;-78
2022/12/23 10:21:43;;;;;;;3.90;1.30;;;7.60;99.90;;;;;;4400189;32;20129;-77
2022/12/23 10:24:24;;;;;;;0.65;0.55;;;7.70;99.90;;;;;;4404982;32;20102;-78
2022/12/23 10:26:52;;;;;;;1.27;1.17;;;7.70;99.90;;;;;;4404245;32;20091;-78
2022/12/23 10:29:22;;;;;;;0.90;0.77;;;7.70;99.90;;;;;;4403168;32;20106;-78
2022/12/23 10:32:04;;;;;;;0.80;0.80;;;7.70;99.90;;;;;;4396464;32;20160;-78
2022/12/23 10:35:04;;;;;;;0.82;0.75;;;7.70;99.90;;;;;;4391037;32;20158;-78
2022/12/23 10:37:43;;;;;;;0.50;0.50;;;7.70;99.90;;;;;;4386351;32;20126;-78
2022/12/23 10:40:28;;;;;;;1.48;0.90;;;7.70;99.90;;;;;;4399815;32;20106;-78
2022/12/23 10:43:09;;;;;;;0.60;0.60;;;7.70;99.90;;;;;;4371985;32;20144;-78
2022/12/23 10:45:55;;;;;;;0.55;0.47;;;7.70;99.90;;;;;;4389887;32;20073;-78
2022/12/23 10:48:37;;;;;;;0.95;0.57;;;7.80;99.90;;;;;;4387854;32;20101;-78
2022/12/23 10:51:13;;;;;;;2.17;0.70;;;7.80;99.90;;;;;;4402178;32;20074;-78
2022/12/23 10:53:48;;;;;;;0.50;0.50;;;7.90;99.90;;;;;;4404262;32;20081;-78
2022/12/23 10:56:14;;;;;;;0.50;0.50;;;7.90;99.90;;;;;;4402476;32;20513;-78
2022/12/23 10:58:43;;;;;;;3.97;1.05;;;8.00;99.90;;;;;;4401533;32;20117;-78
2022/12/23 11:01:13;;;;;;;0.73;0.70;;;8.00;99.90;;;;;;4404462;32;20206;-78
2022/12/23 11:03:44;;;;;;;0.98;0.70;;;8.00;99.90;;;;;;4396525;32;20074;-78
2022/12/23 11:06:11;;;;;;;0.62;0.62;;;8.00;99.90;;;;;;4398729;32;20070;-78
2022/12/23 11:08:37;;;;;;;1.27;0.80;;;8.00;99.90;;;;;;4406754;32;20145;-78
2022/12/23 11:11:03;;;;;;;0.60;0.60;;;8.10;99.90;;;;;;4399303;32;20081;-78
2022/12/23 11:13:46;;;;;;;2.17;0.60;;;8.10;99.90;;;;;;4384426;32;20070;-78
2022/12/23 11:16:24;;;;;;;0.60;0.60;;;8.00;99.90;;;;;;4397230;32;20175;-78
2022/12/23 11:19:01;;;;;;;0.95;0.95;;;8.00;99.90;;;;;;4404667;32;20078;-78
2022/12/23 11:21:29;;;;;;;2.17;0.52;;;8.10;99.90;;;;;;4406353;32;20069;-78
2022/12/23 11:24:16;;;;;;;4.30;0.82;;;8.10;99.90;;;;;;4405472;32;20082;-78
2022/12/23 11:26:43;;;;;;;0.43;0.43;;;8.00;99.90;;;;;;4393806;32;20432;-78
2022/12/23 11:29:18;;;;;;;0.80;0.73;;;8.00;99.90;;;;;;4405961;32;20095;-78
2022/12/23 11:31:44;;;;;;;0.62;0.60;;;8.00;99.90;;;;;;4403362;32;20069;-78
2022/12/23 11:34:20;;;;;;;0.65;0.65;;;8.00;99.90;;;;;;4395910;32;20067;-78
2022/12/23 11:36:54;;;;;;;1.00;0.70;;;8.00;99.90;;;;;;4398663;32;20114;-78
2022/12/23 11:39:25;;;;;;;1.75;0.40;;;7.90;99.90;;;;;;4402423;32;20079;-78
2022/12/23 11:41:52;;;;;;;;;;;7.90;99.90;;;;;;4394248;32;20171;-78
2022/12/23 11:44:27;;;;;;;0.35;0.35;;;7.90;99.90;;;;;;4382086;32;20727;-79
2022/12/23 11:46:55;;;;;;;0.40;0.40;;;7.80;99.90;;;;;;4397899;32;20086;-78
2022/12/23 11:49:23;;;;;;;0.50;0.50;;;7.90;99.90;;;;;;4404370;32;20439;-78
2022/12/23 11:52:07;;;;;;;1.02;0.50;;;7.90;99.90;;;;;;4405210;32;20509;-78
2022/12/23 11:54:34;;;;;;;1.73;0.80;;;7.90;99.90;;;;;;4405319;32;20133;-78
2022/12/23 11:57:03;;;;;;;0.82;0.57;;;7.80;99.90;;;;;;4402440;32;20094;-78
2022/12/23 11:59:48;;;;;;;0.60;0.60;;;7.80;99.90;;;;;;4403390;32;20070;-78
2022/12/23 12:02:26;;;;;;;1.05;0.65;;;7.80;99.90;;;;;;4400321;32;20066;-78
2022/12/23 12:04:57;;;;;;;0.50;0.50;;;7.80;99.90;;;;;;4396651;32;20144;-78
2022/12/23 12:07:29;;;;;;;;;;;7.80;99.90;;;;;;4400206;32;20124;-78
2022/12/23 12:09:58;;;;;;;11.70;0.88;;;7.70;99.90;;;;;;4401707;32;20255;-78
2022/12/23 12:12:26;;;;;;;0.50;0.50;;;7.70;99.90;;;;;;4386612;32;20111;-78
2022/12/23 12:14:56;;;;;;;0.40;0.40;;;7.70;99.90;;;;;;4389847;32;20061;-78
2022/12/23 12:17:35;;;;;;;1.37;0.93;;;7.60;99.90;;;;;;4401887;32;20077;-78
2022/12/23 12:20:22;;;;;;;1.25;1.15;;;7.60;99.90;;;;;;4407418;32;20058;-78
2022/12/23 12:22:52;;;;;;;0.68;0.62;;;7.60;99.90;;;;;;4390719;32;20065;-78
2022/12/23 12:25:22;;;;;;;0.60;0.60;;;7.70;99.90;;;;;;4403792;32;20093;-79
2022/12/23 12:27:56;;;;;;;0.60;0.60;;;7.70;99.90;;;;;;4405565;32;20133;-79
2022/12/23 12:30:33;;;;;;;0.90;0.70;;;7.70;99.90;;;;;;4403572;32;20514;-79
2022/12/23 12:33:04;;;;;;;0.60;0.60;;;7.70;99.90;;;;;;4400433;32;20077;-79
2022/12/23 12:35:39;;;;;;;0.50;0.50;;;7.70;99.90;;;;;;4395067;32;20090;-78
2022/12/23 12:38:16;;;;;;;1.45;0.88;;;7.70;99.90;;;;;;4402508;32;20121;-78
2022/12/23 12:40:46;;;;;;;0.40;0.40;;;7.70;99.90;;;;;;4399331;32;20093;-78
2022/12/23 12:43:20;;;;;;;0.80;0.80;;;7.80;99.90;;;;;;4387055;32;20058;-78
2022/12/23 12:45:58;;;;;;;0.30;0.30;;;7.80;99.90;;;;;;4395816;32;20081;-78
2022/12/23 12:48:47;;;;;;;1.90;0.95;;;7.90;99.90;;;;;;4405010;32;20098;-79
2022/12/23 12:51:25;;;;;;;0.52;0.52;;;7.90;99.90;;;;;;4391237;32;20077;-78
2022/12/23 12:54:05;;;;;;;0.68;0.68;;;8.00;99.90;;;;;;4407211;32;20447;-79
2022/12/23 12:56:39;;;;;;;0.75;0.57;;;8.00;99.90;;;;;;4404112;32;20065;-78
2022/12/23 12:59:04;;;;;;;0.85;0.85;;;8.10;99.90;;;;;;4405638;32;20065;-78
2022/12/23 13:01:44;;;;;;;3.72;1.83;;;8.10;99.90;;;;;;4407086;32;20113;-78
2022/12/23 13:04:39;;;;;;;0.45;0.45;;;8.20;99.90;;;;;;4393574;32;20090;-78
2022/12/23 13:07:17;;;;;;;1.75;0.85;;;8.20;99.90;;;;;;4387776;32;20074;-78
2022/12/23 13:09:57;;;;;;;0.90;0.60;;;8.10;99.90;;;;;;4401200;32;20078;-78
2022/12/23 13:12:34;;;;;;;0.60;0.60;;;8.10;99.90;;;;;;4387396;32;20082;-78
2022/12/23 13:15:08;;;;;;;0.50;0.50;;;8.10;99.90;;;;;;4387071;32;20077;-78
2022/12/23 13:17:46;;;;;;;0.35;0.35;;;8.00;99.90;;;;;;4398921;32;20066;-78
2022/12/23 13:20:34;;;;;;;0.40;0.40;;;8.00;99.90;;;;;;4399900;32;20214;-78
2022/12/23 13:23:09;;;;;;;0.40;0.40;;;7.90;99.90;;;;;;4390828;32;20114;-78
2022/12/23 13:25:43;;;;;;;0.60;0.60;;;7.80;99.90;;;;;;4402183;32;20113;-78